Ruidoso, New Mexico
Current Conditions -  °F | °C
As of 10:55 PM on Saturday 22 Nov 2014 (Local Time) from KSRR Reporting Station
Clear Clear  
Wind Chill: 46°   Ceiling: Unl
Heat Index: 48°   Visibility: 10mi
Dew Point: 14°   Wind: 5mph
Humidity: 25%   Direction: 310°NW
Pressure: 29.85"   Gusts: 16mph
Location:  33.45°N, 105.52°W
Report Text: KSRR 230555Z AUTO 31004G14KT 10SM CLR 09/M10 A2985 RMK AO2
Loading
Personal Weather Stations






























Interactive Weather Map New forecast layout! Learn more

10-Day Weather Forecast

Advertisements
Track Severe Weather on mobile